createdAt,value
2023-10-10T00:00:03.098Z,10.61
2023-10-10T00:01:04.574Z,10.59
2023-10-10T00:02:06.179Z,10.57
2023-10-10T00:03:07.821Z,10.57
2023-10-10T00:04:09.384Z,10.56
2023-10-10T00:05:10.890Z,10.56
2023-10-10T00:06:12.412Z,10.55
2023-10-10T00:07:13.943Z,10.54
2023-10-10T00:08:15.407Z,10.54
2023-10-10T00:09:18.926Z,10.53
2023-10-10T00:10:21.859Z,10.54
2023-10-10T00:11:23.390Z,10.53
2023-10-10T00:12:24.897Z,10.52
2023-10-10T00:13:26.382Z,10.52
2023-10-10T00:14:27.881Z,10.51
2023-10-10T00:15:29.442Z,10.49
2023-10-10T00:16:31.057Z,10.50
2023-10-10T00:17:32.736Z,10.51
2023-10-10T00:18:34.293Z,10.48
2023-10-10T00:19:35.794Z,10.47
2023-10-10T00:20:37.299Z,10.48
2023-10-10T00:21:38.773Z,10.47
2023-10-10T00:22:40.250Z,10.46
2023-10-10T00:23:41.745Z,10.45
2023-10-10T00:24:43.231Z,10.43
2023-10-10T00:25:44.741Z,10.42
2023-10-10T00:26:46.224Z,10.42
2023-10-10T00:27:47.870Z,10.42
2023-10-10T00:28:49.350Z,10.42
2023-10-10T00:29:50.827Z,10.40
2023-10-10T00:30:52.315Z,10.39
2023-10-10T00:31:53.827Z,10.38
2023-10-10T00:32:55.414Z,10.38
2023-10-10T00:33:56.934Z,10.36
2023-10-10T00:34:58.506Z,10.36
2023-10-10T00:35:59.970Z,10.34
2023-10-10T00:37:01.431Z,10.33
2023-10-10T00:38:02.941Z,10.32
2023-10-10T00:39:04.473Z,10.30
2023-10-10T00:40:05.975Z,10.29
2023-10-10T00:41:07.522Z,10.28
2023-10-10T00:42:09.028Z,10.27
2023-10-10T00:43:11.885Z,10.26
2023-10-10T00:44:13.415Z,10.25
2023-10-10T00:45:14.876Z,10.24
2023-10-10T00:46:16.353Z,10.22
2023-10-10T00:47:17.920Z,10.20
2023-10-10T00:48:19.511Z,10.20
2023-10-10T00:49:21.070Z,10.19
2023-10-10T00:50:22.639Z,10.20
2023-10-10T00:51:24.117Z,10.19
2023-10-10T00:52:25.596Z,10.17
2023-10-10T00:53:27.103Z,10.16
2023-10-10T00:54:30.250Z,10.14
2023-10-10T00:55:31.709Z,10.13
2023-10-10T00:56:33.209Z,10.12
2023-10-10T00:57:38.324Z,10.11
2023-10-10T00:58:39.820Z,10.09
2023-10-10T00:59:41.331Z,10.08
2023-10-10T01:00:42.836Z,10.07
2023-10-10T01:01:44.377Z,10.05
2023-10-10T01:02:45.975Z,10.04
2023-10-10T01:03:47.776Z,10.02
2023-10-10T01:04:49.388Z,10.03
2023-10-10T01:05:50.852Z,10.02
2023-10-10T01:06:52.330Z,10.02
2023-10-10T01:07:53.829Z,10.01
2023-10-10T01:08:55.362Z,9.99
2023-10-10T01:09:56.864Z,9.98
2023-10-10T01:11:59.866Z,9.95
2023-10-10T01:13:01.338Z,9.95
2023-10-10T01:14:02.895Z,9.92
2023-10-10T01:15:04.451Z,9.91
2023-10-10T01:16:05.915Z,9.89
2023-10-10T01:17:08.813Z,9.88
2023-10-10T01:18:10.476Z,9.86
2023-10-10T01:19:12.110Z,9.83
2023-10-10T01:20:13.658Z,9.82
2023-10-10T01:21:15.147Z,9.80
2023-10-10T01:22:16.617Z,9.79
2023-10-10T01:23:18.195Z,9.76
2023-10-10T01:24:19.738Z,9.75
2023-10-10T01:25:21.239Z,9.74
2023-10-10T01:26:22.870Z,9.70
2023-10-10T01:28:42.616Z,9.67
2023-10-10T01:29:44.233Z,9.63
2023-10-10T01:30:45.716Z,9.62
2023-10-10T01:31:47.224Z,9.61
2023-10-10T01:32:48.733Z,9.59
2023-10-10T01:33:50.217Z,9.59
2023-10-10T01:34:51.740Z,9.58
2023-10-10T01:35:53.192Z,9.58
2023-10-10T01:36:54.734Z,9.56
2023-10-10T01:37:56.572Z,9.57
2023-10-10T01:38:58.241Z,9.56
2023-10-10T01:40:00.172Z,9.56
2023-10-10T01:41:01.687Z,9.57
2023-10-10T01:42:03.179Z,9.55
2023-10-10T01:43:04.817Z,9.55
2023-10-10T01:44:06.391Z,9.56
2023-10-10T01:45:08.022Z,9.56
2023-10-10T01:46:09.594Z,9.55
2023-10-10T01:47:11.146Z,9.55
2023-10-10T01:48:12.759Z,9.55
2023-10-10T01:49:14.441Z,9.54
2023-10-10T01:50:16.307Z,9.54
2023-10-10T01:51:17.791Z,9.53
2023-10-10T01:52:19.277Z,9.53
2023-10-10T01:53:20.791Z,9.51
2023-10-10T01:54:22.310Z,9.52
2023-10-10T01:55:23.806Z,9.52
2023-10-10T01:56:25.328Z,9.51
2023-10-10T01:57:26.806Z,9.49
2023-10-10T01:58:28.287Z,9.51
2023-10-10T01:59:29.824Z,9.51
2023-10-10T02:00:31.446Z,9.49
2023-10-10T02:01:33.064Z,9.49
2023-10-10T02:02:34.685Z,9.48
2023-10-10T02:03:36.406Z,9.47
2023-10-10T02:04:38.040Z,9.46
2023-10-10T02:05:39.536Z,9.45
2023-10-10T02:06:40.999Z,9.45
2023-10-10T02:07:42.485Z,9.43
2023-10-10T02:08:43.944Z,9.41
2023-10-10T02:09:45.421Z,9.43
2023-10-10T02:10:47.005Z,9.41
2023-10-10T02:11:48.472Z,9.40
2023-10-10T02:12:49.949Z,9.39
2023-10-10T02:13:51.440Z,9.39
2023-10-10T02:14:59.670Z,9.36
2023-10-10T02:16:01.187Z,9.35
2023-10-10T02:17:02.712Z,9.33
2023-10-10T02:18:04.212Z,9.31
2023-10-10T02:19:05.756Z,9.29
2023-10-10T02:20:07.296Z,9.27
2023-10-10T02:21:08.835Z,9.25
2023-10-10T02:22:10.311Z,9.24
2023-10-10T02:23:11.810Z,9.23
2023-10-10T02:24:13.304Z,9.21
2023-10-10T02:25:14.803Z,9.21
2023-10-10T02:26:16.339Z,9.18
2023-10-10T02:27:17.837Z,9.18
2023-10-10T02:28:19.315Z,9.17
2023-10-10T02:29:20.809Z,9.15
2023-10-10T02:30:22.305Z,9.14
2023-10-10T02:31:23.919Z,9.13
2023-10-10T02:32:25.486Z,9.12
2023-10-10T02:33:27.075Z,9.11
2023-10-10T02:34:28.548Z,9.11
2023-10-10T02:35:30.009Z,9.10
2023-10-10T02:36:31.576Z,9.08
2023-10-10T02:37:33.339Z,9.07
2023-10-10T02:38:34.979Z,9.06
2023-10-10T02:39:36.519Z,9.05
2023-10-10T02:40:38.123Z,9.05
2023-10-10T02:41:39.960Z,9.02
2023-10-10T02:42:41.624Z,9.02
2023-10-10T02:43:46.049Z,9.00
2023-10-10T02:44:47.587Z,8.99
2023-10-10T02:45:49.124Z,8.98
2023-10-10T02:46:50.639Z,8.96
2023-10-10T02:47:52.205Z,8.95
2023-10-10T02:48:53.766Z,8.94
2023-10-10T02:49:55.249Z,8.92
2023-10-10T02:50:56.738Z,8.91
2023-10-10T02:51:58.633Z,8.90
2023-10-10T02:53:00.155Z,8.88
2023-10-10T02:54:01.690Z,8.88
2023-10-10T02:55:03.236Z,8.87
2023-10-10T02:56:04.733Z,8.84
2023-10-10T02:57:06.287Z,8.83
2023-10-10T02:58:07.759Z,8.83
2023-10-10T02:59:09.285Z,8.83
2023-10-10T03:00:10.766Z,8.81
2023-10-10T03:01:12.222Z,8.80
2023-10-10T03:02:13.852Z,8.78
2023-10-10T03:03:15.388Z,8.77
2023-10-10T03:04:16.996Z,8.76
2023-10-10T03:05:18.760Z,8.76
2023-10-10T03:06:20.219Z,8.75
2023-10-10T03:07:21.727Z,8.74
2023-10-10T03:08:23.393Z,8.73
2023-10-10T03:09:24.914Z,8.72
2023-10-10T03:10:26.492Z,8.71
2023-10-10T03:11:28.017Z,8.70
2023-10-10T03:12:29.552Z,8.69
2023-10-10T03:13:31.061Z,8.66
2023-10-10T03:14:32.587Z,8.67
2023-10-10T03:15:34.161Z,8.65
2023-10-10T03:16:35.770Z,8.63
2023-10-10T03:17:37.528Z,8.62
2023-10-10T03:18:39.106Z,8.62
2023-10-10T03:19:40.604Z,8.61
2023-10-10T03:20:42.136Z,8.60
2023-10-10T03:21:43.702Z,8.57
2023-10-10T03:22:45.243Z,8.59
2023-10-10T03:23:46.819Z,8.57
2023-10-10T03:24:48.297Z,8.57
2023-10-10T03:25:50.880Z,8.56
2023-10-10T03:26:52.417Z,8.56
2023-10-10T03:27:53.958Z,8.55
2023-10-10T03:28:55.432Z,8.55
2023-10-10T03:29:56.948Z,8.54
2023-10-10T03:30:58.454Z,8.53
2023-10-10T03:31:59.999Z,8.53
2023-10-10T03:33:01.592Z,8.52
2023-10-10T03:34:03.182Z,8.52
2023-10-10T03:35:04.687Z,8.52
2023-10-10T03:36:06.246Z,8.51
2023-10-10T03:37:07.732Z,8.50
2023-10-10T03:38:09.231Z,8.50
2023-10-10T03:39:10.712Z,8.50
2023-10-10T03:40:12.151Z,8.48
2023-10-10T03:41:13.611Z,8.48
2023-10-10T03:42:15.119Z,8.47
2023-10-10T03:43:16.604Z,8.46
2023-10-10T03:44:18.079Z,8.46
2023-10-10T03:45:19.596Z,8.45
2023-10-10T03:46:21.121Z,8.44
2023-10-10T03:47:22.675Z,8.42
2023-10-10T03:48:24.252Z,8.41
2023-10-10T03:49:25.746Z,8.43
2023-10-10T03:50:27.318Z,8.41
2023-10-10T03:51:28.792Z,8.40
2023-10-10T03:52:30.312Z,8.40
2023-10-10T03:53:31.875Z,8.39
2023-10-10T03:54:33.527Z,8.37
2023-10-10T03:55:35.036Z,8.36
2023-10-10T03:56:36.770Z,8.36
2023-10-10T03:57:38.282Z,8.35
2023-10-10T03:58:39.751Z,8.33
2023-10-10T03:59:41.276Z,8.32
2023-10-10T04:00:42.807Z,8.32
2023-10-10T04:01:44.330Z,8.30
2023-10-10T04:02:45.937Z,8.30
2023-10-10T04:03:47.634Z,8.28
2023-10-10T04:04:49.188Z,8.28
2023-10-10T04:05:50.631Z,8.27
2023-10-10T04:06:52.089Z,8.26
2023-10-10T04:07:53.557Z,8.25
2023-10-10T04:08:55.120Z,8.23
2023-10-10T04:09:56.622Z,8.23
2023-10-10T04:10:58.090Z,8.22
2023-10-10T04:11:59.563Z,8.20
2023-10-10T04:13:01.101Z,8.19
2023-10-10T04:14:02.675Z,8.18
2023-10-10T04:15:04.226Z,8.17
2023-10-10T04:16:05.782Z,8.17
2023-10-10T04:17:07.642Z,8.15
2023-10-10T04:18:09.791Z,8.15
2023-10-10T04:19:14.558Z,8.13
2023-10-10T04:20:16.115Z,8.11
2023-10-10T04:21:17.732Z,8.11
2023-10-10T04:22:19.235Z,8.10
2023-10-10T04:23:20.770Z,8.09
2023-10-10T04:24:22.255Z,8.07
2023-10-10T04:25:23.723Z,8.07
2023-10-10T04:26:25.264Z,8.05
2023-10-10T04:27:26.797Z,8.04
2023-10-10T04:28:28.344Z,8.04
2023-10-10T04:29:30.029Z,8.03
2023-10-10T04:30:31.589Z,8.02
2023-10-10T04:31:33.162Z,8.00
2023-10-10T04:32:34.764Z,8.00
2023-10-10T04:33:36.301Z,7.99
2023-10-10T04:34:37.813Z,7.97
2023-10-10T04:35:39.287Z,7.96
2023-10-10T04:36:40.763Z,7.96
2023-10-10T04:37:42.296Z,7.94
2023-10-10T04:38:43.845Z,7.93
2023-10-10T04:39:45.399Z,7.93
2023-10-10T04:40:46.862Z,7.91
2023-10-10T04:41:48.327Z,7.91
2023-10-10T04:42:49.830Z,7.89
2023-10-10T04:43:53.033Z,7.88
2023-10-10T04:44:56.206Z,7.87
2023-10-10T04:45:57.697Z,7.86
2023-10-10T04:46:59.179Z,7.85
2023-10-10T04:48:00.733Z,7.83
2023-10-10T04:49:02.331Z,7.83
2023-10-10T04:50:03.857Z,7.81
2023-10-10T04:51:05.357Z,7.81
2023-10-10T04:52:06.900Z,7.79
2023-10-10T04:53:08.429Z,7.79
2023-10-10T04:54:09.931Z,7.78
2023-10-10T04:55:11.430Z,7.78
2023-10-10T04:56:12.905Z,7.76
2023-10-10T04:57:14.413Z,7.75
2023-10-10T04:58:15.930Z,7.74
2023-10-10T04:59:17.471Z,7.73
2023-10-10T05:00:19.009Z,7.71
2023-10-10T05:01:20.506Z,7.70
2023-10-10T05:02:22.071Z,7.68
2023-10-10T05:03:23.672Z,7.70
2023-10-10T05:04:27.182Z,7.67
2023-10-10T05:05:28.822Z,7.66
2023-10-10T05:06:30.334Z,7.65
2023-10-10T05:07:31.840Z,7.64
2023-10-10T05:08:33.444Z,7.63
2023-10-10T05:09:34.989Z,7.62
2023-10-10T05:10:36.534Z,7.61
2023-10-10T05:11:38.034Z,7.60
2023-10-10T05:12:39.548Z,7.58
2023-10-10T05:13:41.153Z,7.57
2023-10-10T05:14:42.697Z,7.56
2023-10-10T05:15:44.199Z,7.55
2023-10-10T05:16:45.665Z,7.54
2023-10-10T05:17:47.168Z,7.53
2023-10-10T05:18:50.632Z,7.52
2023-10-10T05:19:52.386Z,7.51
2023-10-10T05:20:53.917Z,7.50
2023-10-10T05:21:55.432Z,7.48
2023-10-10T05:22:56.994Z,7.48
2023-10-10T05:23:58.455Z,7.47
2023-10-10T05:25:02.002Z,7.47
2023-10-10T05:26:03.606Z,7.45
2023-10-10T05:27:05.154Z,7.44
2023-10-10T05:28:06.597Z,7.43
2023-10-10T05:29:08.129Z,7.42
2023-10-10T05:30:09.639Z,7.41
2023-10-10T05:31:11.333Z,7.39
2023-10-10T05:32:12.925Z,7.38
2023-10-10T05:33:14.539Z,7.37
2023-10-10T05:34:16.229Z,7.37
2023-10-10T05:35:18.041Z,7.35
2023-10-10T05:36:19.646Z,7.36
2023-10-10T05:37:21.175Z,7.34
2023-10-10T05:38:22.668Z,7.32
2023-10-10T05:39:24.159Z,7.33
2023-10-10T05:40:25.660Z,7.30
2023-10-10T05:41:27.183Z,7.29
2023-10-10T05:42:28.720Z,7.27
2023-10-10T05:43:30.189Z,7.27
2023-10-10T05:44:31.740Z,7.27
2023-10-10T05:45:33.266Z,7.26
2023-10-10T05:46:34.820Z,7.25
2023-10-10T05:47:36.415Z,7.24
2023-10-10T05:48:37.984Z,7.22
2023-10-10T05:49:39.460Z,7.23
2023-10-10T05:50:40.986Z,7.22
2023-10-10T05:51:42.657Z,7.20
2023-10-10T05:52:44.151Z,7.20
2023-10-10T05:53:45.763Z,7.19
2023-10-10T05:54:47.218Z,7.18
2023-10-10T05:55:48.677Z,7.19
2023-10-10T05:56:50.174Z,7.17
2023-10-10T05:57:51.746Z,7.17
2023-10-10T05:58:55.069Z,7.16
2023-10-10T05:59:56.789Z,7.15
2023-10-10T06:00:58.284Z,7.14
2023-10-10T06:01:59.782Z,7.14
2023-10-10T06:03:01.416Z,7.11
2023-10-10T06:04:03.007Z,7.12
2023-10-10T06:05:04.574Z,7.12
2023-10-10T06:06:06.068Z,7.10
2023-10-10T06:07:07.531Z,7.08
2023-10-10T06:08:09.022Z,7.10
2023-10-10T06:09:10.498Z,7.09
2023-10-10T06:10:12.000Z,7.08
2023-10-10T06:11:13.495Z,7.09
2023-10-10T06:12:15.450Z,7.07
2023-10-10T06:13:17.190Z,7.07
2023-10-10T06:14:18.857Z,7.07
2023-10-10T06:15:20.626Z,7.06
2023-10-10T06:16:22.168Z,7.06
2023-10-10T06:17:23.772Z,7.05
2023-10-10T06:18:25.368Z,7.06
2023-10-10T06:19:26.900Z,7.05
2023-10-10T06:20:28.478Z,7.04
2023-10-10T06:21:29.960Z,7.04
2023-10-10T06:22:31.445Z,7.04
2023-10-10T06:23:32.892Z,7.04
2023-10-10T06:24:34.409Z,7.04
2023-10-10T06:25:35.861Z,7.05
2023-10-10T06:26:37.367Z,7.04
2023-10-10T06:27:39.314Z,7.04
2023-10-10T06:28:40.852Z,7.04
2023-10-10T06:29:42.383Z,7.05
2023-10-10T06:30:43.888Z,7.05
2023-10-10T06:31:45.439Z,7.05
2023-10-10T06:32:47.473Z,7.05
2023-10-10T06:33:49.235Z,7.06
2023-10-10T06:34:51.115Z,7.05
2023-10-10T06:35:52.646Z,7.07
2023-10-10T06:36:54.157Z,7.06
2023-10-10T06:37:55.701Z,7.07
2023-10-10T06:38:57.231Z,7.07
2023-10-10T06:39:58.769Z,7.07
2023-10-10T06:41:00.256Z,7.08
2023-10-10T06:42:01.698Z,7.10
2023-10-10T06:43:03.466Z,7.10
2023-10-10T06:44:07.136Z,7.10
2023-10-10T06:45:08.668Z,7.11
2023-10-10T06:46:10.210Z,7.11
2023-10-10T06:47:11.739Z,7.12
2023-10-10T06:48:13.285Z,7.12
2023-10-10T06:49:14.771Z,7.13
2023-10-10T06:50:16.304Z,7.13
2023-10-10T06:51:17.818Z,7.14
2023-10-10T06:52:19.423Z,7.14
2023-10-10T06:53:21.324Z,7.15
2023-10-10T06:54:22.808Z,7.15
2023-10-10T06:55:24.271Z,7.16
2023-10-10T06:56:25.802Z,7.18
2023-10-10T06:57:27.277Z,7.17
2023-10-10T06:58:28.928Z,7.18
2023-10-10T06:59:30.777Z,7.20
2023-10-10T07:00:32.693Z,7.22
2023-10-10T07:01:34.163Z,7.22
2023-10-10T07:02:35.701Z,7.23
2023-10-10T07:03:37.292Z,7.24
2023-10-10T07:04:38.874Z,7.26
2023-10-10T07:05:40.418Z,7.27
2023-10-10T07:06:41.941Z,7.28
2023-10-10T07:07:43.413Z,7.31
2023-10-10T07:08:44.972Z,7.32
2023-10-10T07:09:46.477Z,7.34
2023-10-10T07:10:47.989Z,7.37
2023-10-10T07:11:49.464Z,7.39
2023-10-10T07:12:50.914Z,7.41
2023-10-10T07:13:52.388Z,7.44
2023-10-10T07:14:53.939Z,7.47
2023-10-10T07:15:55.574Z,7.48
2023-10-10T07:16:57.125Z,7.52
2023-10-10T07:17:58.675Z,7.54
2023-10-10T07:19:00.252Z,7.58
2023-10-10T07:20:02.105Z,7.61
2023-10-10T07:21:04.198Z,7.64
2023-10-10T07:22:05.903Z,7.70
2023-10-10T07:23:07.386Z,7.72
2023-10-10T07:24:08.871Z,7.75
2023-10-10T07:25:10.375Z,7.79
2023-10-10T07:26:11.931Z,7.83
2023-10-10T07:27:13.935Z,7.88
2023-10-10T07:28:15.691Z,7.91
2023-10-10T07:29:17.232Z,7.96
2023-10-10T07:30:18.763Z,8.01
2023-10-10T07:31:20.343Z,8.04
2023-10-10T07:32:21.811Z,8.10
2023-10-10T07:33:23.347Z,8.14
2023-10-10T07:34:24.866Z,8.19
2023-10-10T07:35:26.507Z,8.24
2023-10-10T07:36:28.202Z,8.28
2023-10-10T07:37:29.677Z,8.34
2023-10-10T07:38:33.712Z,8.38
2023-10-10T07:39:35.291Z,8.42
2023-10-10T07:40:36.762Z,8.47
2023-10-10T07:41:38.309Z,8.52
2023-10-10T07:42:39.819Z,8.57
2023-10-10T07:43:41.289Z,8.61
2023-10-10T07:44:42.797Z,8.67
2023-10-10T07:45:44.283Z,8.73
2023-10-10T07:46:45.841Z,8.78
2023-10-10T07:47:47.390Z,8.83
2023-10-10T07:48:48.943Z,8.89
2023-10-10T07:49:50.542Z,8.93
2023-10-10T07:50:52.036Z,9.01
2023-10-10T07:51:53.533Z,9.05
2023-10-10T07:52:55.039Z,9.11
2023-10-10T07:53:56.515Z,9.19
2023-10-10T07:54:57.993Z,9.25
2023-10-10T07:55:59.468Z,9.31
2023-10-10T07:57:02.405Z,9.38
2023-10-10T07:58:04.305Z,9.44
2023-10-10T07:59:06.051Z,9.51
2023-10-10T08:00:07.634Z,9.56
2023-10-10T08:01:09.208Z,9.63
2023-10-10T08:02:10.730Z,9.71
2023-10-10T08:03:12.349Z,9.78
2023-10-10T08:04:16.532Z,9.85
2023-10-10T08:05:19.955Z,9.92
2023-10-10T08:06:21.582Z,9.99
2023-10-10T08:07:23.081Z,10.07
2023-10-10T08:08:24.592Z,10.14
2023-10-10T08:09:26.112Z,10.21
2023-10-10T08:10:27.625Z,10.26
2023-10-10T08:11:29.184Z,10.36
2023-10-10T08:12:30.720Z,10.42
2023-10-10T08:13:32.201Z,10.52
2023-10-10T08:14:33.676Z,10.58
2023-10-10T08:15:35.242Z,10.66
2023-10-10T08:16:36.745Z,10.74
2023-10-10T08:17:38.341Z,10.82
2023-10-10T08:18:39.982Z,10.88
2023-10-10T08:19:42.059Z,10.95
2023-10-10T08:20:43.591Z,11.02
2023-10-10T08:21:45.097Z,11.10
2023-10-10T08:22:46.634Z,11.16
2023-10-10T08:23:48.219Z,11.23
2023-10-10T08:24:49.765Z,11.32
2023-10-10T08:25:51.275Z,11.38
2023-10-10T08:26:53.148Z,11.46
2023-10-10T08:27:54.735Z,11.53
2023-10-10T08:28:56.204Z,11.61
2023-10-10T08:29:57.677Z,11.68
2023-10-10T08:30:59.340Z,11.76
2023-10-10T08:32:00.830Z,11.85
2023-10-10T08:33:02.416Z,11.93
2023-10-10T08:34:03.971Z,12.00
2023-10-10T08:35:05.457Z,12.09
2023-10-10T08:36:06.941Z,12.17
2023-10-10T08:37:08.411Z,12.25
2023-10-10T08:38:09.951Z,12.33
2023-10-10T08:39:11.447Z,12.41
2023-10-10T08:40:12.900Z,12.50
2023-10-10T08:41:14.458Z,12.56
2023-10-10T08:42:16.031Z,12.65
2023-10-10T08:43:17.572Z,12.73
2023-10-10T08:44:19.228Z,12.81
2023-10-10T08:45:20.779Z,12.89
2023-10-10T08:46:22.268Z,12.97
2023-10-10T08:47:23.784Z,13.05
2023-10-10T08:48:25.351Z,13.13
2023-10-10T08:49:26.858Z,13.21
2023-10-10T08:50:28.382Z,13.30
2023-10-10T08:51:29.851Z,13.38
2023-10-10T08:52:31.401Z,13.45
2023-10-10T08:53:32.964Z,13.53
2023-10-10T08:54:34.480Z,13.61
2023-10-10T08:55:39.873Z,13.69
2023-10-10T08:56:41.926Z,13.78
2023-10-10T08:57:43.444Z,13.84
2023-10-10T08:58:44.902Z,13.93
2023-10-10T08:59:46.451Z,14.02
2023-10-10T09:00:49.931Z,14.09
2023-10-10T09:01:51.746Z,14.17
2023-10-10T09:02:53.385Z,14.26
2023-10-10T09:03:55.027Z,14.33
2023-10-10T09:04:56.540Z,14.41
2023-10-10T09:05:57.998Z,14.48
2023-10-10T09:06:59.559Z,14.55
2023-10-10T09:08:01.132Z,14.62
2023-10-10T09:09:02.601Z,14.69
2023-10-10T09:10:04.089Z,14.76
2023-10-10T09:11:05.563Z,14.81
2023-10-10T09:12:07.098Z,14.88
2023-10-10T09:13:08.601Z,14.95
2023-10-10T09:14:10.097Z,15.02
2023-10-10T09:15:11.659Z,15.07
2023-10-10T09:16:13.190Z,15.13
2023-10-10T09:17:14.709Z,15.17
2023-10-10T09:18:16.292Z,15.22
2023-10-10T09:19:17.942Z,15.28
2023-10-10T09:20:19.496Z,15.34
2023-10-10T09:21:20.976Z,15.36
2023-10-10T09:22:22.467Z,15.41
2023-10-10T09:23:24.477Z,15.45
2023-10-10T09:24:26.109Z,15.47
2023-10-10T09:25:27.688Z,15.52
2023-10-10T09:26:29.194Z,15.55
2023-10-10T09:27:30.708Z,15.60
2023-10-10T09:28:32.173Z,15.62
2023-10-10T09:29:33.666Z,15.65
2023-10-10T09:30:35.247Z,15.69
2023-10-10T09:31:37.735Z,15.70
2023-10-10T09:32:40.948Z,15.73
2023-10-10T09:33:42.456Z,15.72
2023-10-10T09:34:43.936Z,15.72
2023-10-10T09:35:45.442Z,15.72
2023-10-10T09:36:46.939Z,15.71
2023-10-10T09:37:48.425Z,15.71
2023-10-10T09:38:49.968Z,15.69
2023-10-10T09:39:51.536Z,15.68
2023-10-10T09:40:53.005Z,15.68
2023-10-10T09:41:54.447Z,15.65
2023-10-10T09:42:55.956Z,15.63
2023-10-10T09:43:57.545Z,15.63
2023-10-10T09:44:59.066Z,15.62
2023-10-10T09:46:00.582Z,15.62
2023-10-10T09:47:02.078Z,15.61
2023-10-10T09:48:03.713Z,15.62
2023-10-10T09:49:05.257Z,15.61
2023-10-10T09:50:06.916Z,15.62
2023-10-10T09:51:08.407Z,15.62
2023-10-10T09:52:09.873Z,15.63
2023-10-10T09:53:11.499Z,15.63
2023-10-10T09:54:13.108Z,15.61
2023-10-10T09:55:14.681Z,15.59
2023-10-10T09:56:16.240Z,15.56
2023-10-10T09:57:19.098Z,15.53
2023-10-10T09:58:20.783Z,15.50
2023-10-10T09:59:22.411Z,15.46
2023-10-10T10:00:27.662Z,15.45
2023-10-10T10:01:29.432Z,15.44
2023-10-10T10:02:31.001Z,15.43
2023-10-10T10:03:32.694Z,15.44
2023-10-10T10:04:34.324Z,15.42
2023-10-10T10:05:35.851Z,15.42
2023-10-10T10:06:41.261Z,15.42
2023-10-10T10:07:47.752Z,15.40
2023-10-10T10:08:49.289Z,15.41
2023-10-10T10:09:50.746Z,15.40
2023-10-10T10:10:52.197Z,15.39
2023-10-10T10:11:53.646Z,15.39
2023-10-10T10:12:55.140Z,15.38
2023-10-10T10:14:04.962Z,15.40
2023-10-10T10:15:14.458Z,15.38
2023-10-10T10:16:15.989Z,15.39
2023-10-10T10:17:17.479Z,15.37
2023-10-10T10:18:19.068Z,15.36
2023-10-10T10:19:20.633Z,15.36
2023-10-10T10:20:22.213Z,15.34
2023-10-10T10:21:23.694Z,15.34
2023-10-10T10:22:25.166Z,15.33
2023-10-10T10:23:26.819Z,15.33
2023-10-10T10:24:28.450Z,15.31
2023-10-10T10:25:30.061Z,15.31
2023-10-10T10:26:31.856Z,15.31
2023-10-10T10:27:33.398Z,15.31
2023-10-10T10:28:34.881Z,15.30
2023-10-10T10:29:36.449Z,15.32
2023-10-10T10:30:37.962Z,15.32
2023-10-10T10:31:41.195Z,15.32
2023-10-10T10:32:42.995Z,15.33
2023-10-10T10:33:44.471Z,15.33
2023-10-10T10:34:45.930Z,15.35
2023-10-10T10:35:47.430Z,15.35
2023-10-10T10:36:49.017Z,15.35
2023-10-10T10:37:50.474Z,15.35
2023-10-10T10:38:51.993Z,15.35
2023-10-10T10:39:53.515Z,15.36
2023-10-10T10:40:54.961Z,15.36
2023-10-10T10:41:56.436Z,15.37
2023-10-10T10:42:57.948Z,15.38
2023-10-10T10:43:59.483Z,15.38
2023-10-10T10:45:00.986Z,15.37
2023-10-10T10:46:02.496Z,15.37
2023-10-10T10:47:03.966Z,15.36
2023-10-10T10:48:05.524Z,15.37
2023-10-10T10:49:07.430Z,15.37
2023-10-10T10:50:08.998Z,15.37
2023-10-10T10:51:10.486Z,15.38
2023-10-10T10:52:11.988Z,15.41
2023-10-10T10:53:13.616Z,15.40
2023-10-10T10:54:15.270Z,15.40
2023-10-10T10:55:16.909Z,15.40
2023-10-10T10:56:18.425Z,15.40
2023-10-10T10:57:20.000Z,15.43
2023-10-10T10:58:21.482Z,15.41
2023-10-10T10:59:23.050Z,15.43
2023-10-10T11:00:24.611Z,15.44
2023-10-10T11:01:26.184Z,15.44
2023-10-10T11:02:27.758Z,15.44
2023-10-10T11:03:29.385Z,15.45
2023-10-10T11:04:30.996Z,15.46
2023-10-10T11:05:32.617Z,15.46
2023-10-10T11:06:34.126Z,15.48
2023-10-10T11:07:35.587Z,15.48
2023-10-10T11:08:46.476Z,15.48
2023-10-10T11:09:56.332Z,15.50
2023-10-10T11:10:57.808Z,15.49
2023-10-10T11:11:59.339Z,15.50
2023-10-10T11:13:00.845Z,15.49
2023-10-10T11:14:02.446Z,15.50
2023-10-10T11:15:03.919Z,15.50
2023-10-10T11:16:05.622Z,15.51
2023-10-10T11:17:07.124Z,15.51
2023-10-10T11:18:08.718Z,15.53
2023-10-10T11:19:10.350Z,15.54
2023-10-10T11:20:11.927Z,15.57
2023-10-10T11:21:13.437Z,15.58
2023-10-10T11:22:14.909Z,15.60
2023-10-10T11:23:16.389Z,15.61
2023-10-10T11:24:17.985Z,15.63
2023-10-10T11:25:19.509Z,15.65
2023-10-10T11:26:21.123Z,15.66
2023-10-10T11:27:22.672Z,15.65
2023-10-10T11:28:24.120Z,15.66
2023-10-10T11:29:25.669Z,15.67
2023-10-10T11:30:27.128Z,15.67
2023-10-10T11:31:28.697Z,15.68
2023-10-10T11:32:30.299Z,15.69
2023-10-10T11:33:31.990Z,15.70
2023-10-10T11:34:33.579Z,15.71
2023-10-10T11:35:35.054Z,15.71
2023-10-10T11:36:36.550Z,15.72
2023-10-10T11:37:38.006Z,15.72
2023-10-10T11:38:39.494Z,15.72
2023-10-10T11:39:40.993Z,15.74
2023-10-10T11:40:42.465Z,15.74
2023-10-10T11:41:44.031Z,15.75
2023-10-10T11:42:45.507Z,15.77
2023-10-10T11:43:46.983Z,15.80
2023-10-10T11:44:48.551Z,15.81
2023-10-10T11:45:50.171Z,15.82
2023-10-10T11:46:51.710Z,15.84
2023-10-10T11:47:53.254Z,15.85
2023-10-10T11:48:54.774Z,15.86
2023-10-10T11:49:56.321Z,15.89
2023-10-10T11:50:57.892Z,15.91
2023-10-10T11:51:59.487Z,15.91
2023-10-10T11:53:00.968Z,15.91
2023-10-10T11:54:02.482Z,15.93
2023-10-10T11:55:03.953Z,15.92
2023-10-10T11:56:05.437Z,15.93
2023-10-10T11:57:06.904Z,15.93
2023-10-10T11:58:08.424Z,15.94
2023-10-10T11:59:09.907Z,15.95
2023-10-10T12:00:26.667Z,15.96
2023-10-10T12:01:29.351Z,15.98
2023-10-10T12:02:31.189Z,15.99
2023-10-10T12:03:32.874Z,15.99
2023-10-10T12:04:34.431Z,15.99
2023-10-10T12:05:35.936Z,15.98
2023-10-10T12:06:37.578Z,16.01
2023-10-10T12:07:39.111Z,16.01
2023-10-10T12:08:40.620Z,16.01
2023-10-10T12:09:43.499Z,16.01
2023-10-10T12:10:44.962Z,16.03
2023-10-10T12:11:47.791Z,16.02
2023-10-10T12:12:49.342Z,16.03
2023-10-10T12:13:50.801Z,16.05
2023-10-10T12:14:52.308Z,16.04
2023-10-10T12:15:54.726Z,16.06
2023-10-10T12:16:56.176Z,16.05
2023-10-10T12:17:59.165Z,16.06
2023-10-10T12:19:00.832Z,16.07
2023-10-10T12:20:02.327Z,16.07
2023-10-10T12:21:03.983Z,16.09
2023-10-10T12:22:05.492Z,16.09
2023-10-10T12:23:06.989Z,16.10
2023-10-10T12:24:08.477Z,16.12
2023-10-10T12:25:09.952Z,16.12
2023-10-10T12:26:11.455Z,16.12
2023-10-10T12:27:12.929Z,16.14
2023-10-10T12:28:14.404Z,16.15
2023-10-10T12:29:15.904Z,16.16
2023-10-10T12:30:17.360Z,16.19
2023-10-10T12:31:18.858Z,16.20
2023-10-10T12:32:20.846Z,16.21
2023-10-10T12:33:22.626Z,16.24
2023-10-10T12:34:24.223Z,16.25
2023-10-10T12:35:25.732Z,16.28
2023-10-10T12:36:27.209Z,16.29
2023-10-10T12:37:28.800Z,16.29
2023-10-10T12:38:30.302Z,16.31
2023-10-10T12:39:31.766Z,16.34
2023-10-10T12:40:33.231Z,16.35
2023-10-10T12:41:34.768Z,16.35
2023-10-10T12:42:36.298Z,16.36
2023-10-10T12:43:37.778Z,16.40
2023-10-10T12:44:39.272Z,16.41
2023-10-10T12:45:40.785Z,16.42
2023-10-10T12:46:42.273Z,16.44
2023-10-10T12:47:43.766Z,16.45
2023-10-10T12:48:45.371Z,16.45
2023-10-10T12:49:46.936Z,16.48
2023-10-10T12:50:48.454Z,16.50
2023-10-10T12:51:50.013Z,16.51
2023-10-10T12:52:51.576Z,16.52
2023-10-10T12:53:53.605Z,16.54
2023-10-10T12:54:56.161Z,16.53
2023-10-10T12:55:57.619Z,16.53
2023-10-10T12:56:59.133Z,16.53
2023-10-10T12:58:00.655Z,16.54
2023-10-10T12:59:11.340Z,16.54
2023-10-10T13:00:23.578Z,16.55
2023-10-10T13:01:25.071Z,16.56
2023-10-10T13:02:26.683Z,16.56
2023-10-10T13:03:28.456Z,16.57
2023-10-10T13:04:30.361Z,16.58
2023-10-10T13:05:32.428Z,16.59
2023-10-10T13:06:33.980Z,16.60
2023-10-10T13:07:35.447Z,16.62
2023-10-10T13:08:36.944Z,16.62
2023-10-10T13:09:38.467Z,16.65
2023-10-10T13:10:39.968Z,16.66
2023-10-10T13:11:41.463Z,16.68
2023-10-10T13:12:42.982Z,16.69
2023-10-10T13:13:44.723Z,16.70
2023-10-10T13:14:46.222Z,16.72
2023-10-10T13:15:47.743Z,16.73
2023-10-10T13:16:49.223Z,16.74
2023-10-10T13:17:50.826Z,16.75
2023-10-10T13:18:52.399Z,16.75
2023-10-10T13:19:53.858Z,16.76
2023-10-10T13:20:55.417Z,16.76
2023-10-10T13:21:56.898Z,16.76
2023-10-10T13:22:58.338Z,16.76
2023-10-10T13:23:59.896Z,16.76
2023-10-10T13:25:01.418Z,16.78
2023-10-10T13:26:02.893Z,16.78
2023-10-10T13:27:04.364Z,16.80
2023-10-10T13:28:05.847Z,16.79
2023-10-10T13:29:07.364Z,16.81
2023-10-10T13:30:08.871Z,16.82